sensor_id;sensor_type;location;lat;lon;timestamp;P1;durP1;ratioP1;P2;durP2;ratioP2
35644;SDS011;21764;52.042;6.830;2023-02-11T00:01:12;105.20;;;48.55;;
35644;SDS011;21764;52.042;6.830;2023-02-11T00:06:53;100.13;;;45.30;;
35644;SDS011;21764;52.042;6.830;2023-02-11T00:11:59;95.13;;;44.05;;
35644;SDS011;21764;52.042;6.830;2023-02-11T00:17:34;93.13;;;41.80;;
35644;SDS011;21764;52.042;6.830;2023-02-11T00:22:40;94.85;;;42.92;;
35644;SDS011;21764;52.042;6.830;2023-02-11T00:27:50;91.53;;;41.70;;
35644;SDS011;21764;52.042;6.830;2023-02-11T00:33:18;96.95;;;42.85;;
35644;SDS011;21764;52.042;6.830;2023-02-11T00:38:50;93.32;;;38.55;;
35644;SDS011;21764;52.042;6.830;2023-02-11T00:44:08;93.03;;;41.08;;
35644;SDS011;21764;52.042;6.830;2023-02-11T00:49:20;87.85;;;39.20;;
35644;SDS011;21764;52.042;6.830;2023-02-11T00:54:49;85.93;;;37.33;;
35644;SDS011;21764;52.042;6.830;2023-02-11T01:00:32;81.13;;;37.03;;
35644;SDS011;21764;52.042;6.830;2023-02-11T01:05:43;74.10;;;35.60;;
35644;SDS011;21764;52.042;6.830;2023-02-11T01:11:01;69.43;;;34.92;;
35644;SDS011;21764;52.042;6.830;2023-02-11T01:16:23;79.38;;;34.33;;
35644;SDS011;21764;52.042;6.830;2023-02-11T01:21:30;74.03;;;32.55;;
35644;SDS011;21764;52.042;6.830;2023-02-11T01:26:39;65.78;;;30.25;;
35644;SDS011;21764;52.042;6.830;2023-02-11T01:32:38;71.88;;;31.40;;
35644;SDS011;21764;52.042;6.830;2023-02-11T01:37:51;71.40;;;29.13;;
35644;SDS011;21764;52.042;6.830;2023-02-11T01:43:21;57.20;;;28.75;;
35644;SDS011;21764;52.042;6.830;2023-02-11T01:49:05;74.88;;;28.75;;
35644;SDS011;21764;52.042;6.830;2023-02-11T01:54:41;64.85;;;26.13;;
35644;SDS011;21764;52.042;6.830;2023-02-11T02:05:54;62.17;;;26.90;;
35644;SDS011;21764;52.042;6.830;2023-02-11T02:11:19;56.78;;;25.38;;
35644;SDS011;21764;52.042;6.830;2023-02-11T02:16:47;64.20;;;26.42;;
35644;SDS011;21764;52.042;6.830;2023-02-11T02:27:47;51.85;;;24.08;;
35644;SDS011;21764;52.042;6.830;2023-02-11T02:33:40;57.78;;;23.00;;
35644;SDS011;21764;52.042;6.830;2023-02-11T02:39:26;51.10;;;21.88;;
35644;SDS011;21764;52.042;6.830;2023-02-11T02:44:40;56.15;;;23.65;;
35644;SDS011;21764;52.042;6.830;2023-02-11T02:49:53;57.75;;;22.50;;
35644;SDS011;21764;52.042;6.830;2023-02-11T02:55:54;52.88;;;21.48;;
35644;SDS011;21764;52.042;6.830;2023-02-11T03:29:08;50.80;;;19.65;;
35644;SDS011;21764;52.042;6.830;2023-02-11T03:34:59;43.95;;;19.15;;
35644;SDS011;21764;52.042;6.830;2023-02-11T03:40:25;57.58;;;20.38;;
35644;SDS011;21764;52.042;6.830;2023-02-11T03:45:32;52.22;;;18.40;;
35644;SDS011;21764;52.042;6.830;2023-02-11T03:51:04;50.15;;;19.48;;
35644;SDS011;21764;52.042;6.830;2023-02-11T03:56:37;46.95;;;20.08;;
35644;SDS011;21764;52.042;6.830;2023-02-11T04:01:53;56.47;;;19.35;;
35644;SDS011;21764;52.042;6.830;2023-02-11T04:07:01;46.55;;;18.65;;
35644;SDS011;21764;52.042;6.830;2023-02-11T04:12:05;44.90;;;19.17;;
35644;SDS011;21764;52.042;6.830;2023-02-11T04:17:30;45.45;;;20.60;;
35644;SDS011;21764;52.042;6.830;2023-02-11T04:23:33;50.38;;;19.40;;
35644;SDS011;21764;52.042;6.830;2023-02-11T04:28:49;47.13;;;18.88;;
35644;SDS011;21764;52.042;6.830;2023-02-11T04:34:00;43.25;;;17.88;;
35644;SDS011;21764;52.042;6.830;2023-02-11T04:39:05;49.53;;;18.50;;
35644;SDS011;21764;52.042;6.830;2023-02-11T04:44:47;56.28;;;21.20;;
35644;SDS011;21764;52.042;6.830;2023-02-11T04:50:12;53.40;;;20.02;;
35644;SDS011;21764;52.042;6.830;2023-02-11T04:55:25;51.88;;;18.50;;
35644;SDS011;21764;52.042;6.830;2023-02-11T05:00:37;47.65;;;19.50;;
35644;SDS011;21764;52.042;6.830;2023-02-11T05:06:12;50.10;;;20.35;;
35644;SDS011;21764;52.042;6.830;2023-02-11T05:17:00;41.38;;;19.45;;
35644;SDS011;21764;52.042;6.830;2023-02-11T05:22:27;52.63;;;20.42;;
35644;SDS011;21764;52.042;6.830;2023-02-11T05:27:52;65.53;;;22.88;;
35644;SDS011;21764;52.042;6.830;2023-02-11T05:33:10;54.22;;;22.20;;
35644;SDS011;21764;52.042;6.830;2023-02-11T05:38:36;49.42;;;21.73;;
35644;SDS011;21764;52.042;6.830;2023-02-11T05:43:51;67.53;;;23.40;;
35644;SDS011;21764;52.042;6.830;2023-02-11T05:49:25;60.00;;;22.10;;
35644;SDS011;21764;52.042;6.830;2023-02-11T05:54:34;58.83;;;24.60;;
35644;SDS011;21764;52.042;6.830;2023-02-11T05:59:37;62.25;;;24.25;;
35644;SDS011;21764;52.042;6.830;2023-02-11T06:10:24;59.75;;;25.80;;
35644;SDS011;21764;52.042;6.830;2023-02-11T06:21:31;79.15;;;27.73;;
35644;SDS011;21764;52.042;6.830;2023-02-11T06:27:18;68.45;;;28.35;;
35644;SDS011;21764;52.042;6.830;2023-02-11T06:32:51;75.18;;;30.33;;
35644;SDS011;21764;52.042;6.830;2023-02-11T06:38:05;66.65;;;29.33;;
35644;SDS011;21764;52.042;6.830;2023-02-11T06:43:21;76.03;;;29.48;;
35644;SDS011;21764;52.042;6.830;2023-02-11T06:49:27;77.67;;;30.93;;
35644;SDS011;21764;52.042;6.830;2023-02-11T06:55:00;77.40;;;31.88;;
35644;SDS011;21764;52.042;6.830;2023-02-11T07:00:08;72.63;;;33.50;;
35644;SDS011;21764;52.042;6.830;2023-02-11T07:05:46;81.30;;;34.67;;
35644;SDS011;21764;52.042;6.830;2023-02-11T07:16:36;82.80;;;35.35;;
35644;SDS011;21764;52.042;6.830;2023-02-11T07:21:59;90.50;;;36.97;;
35644;SDS011;21764;52.042;6.830;2023-02-11T07:27:40;78.13;;;36.45;;
35644;SDS011;21764;52.042;6.830;2023-02-11T07:32:55;99.97;;;37.50;;
35644;SDS011;21764;52.042;6.830;2023-02-11T07:38:11;98.43;;;37.33;;
35644;SDS011;21764;52.042;6.830;2023-02-11T07:43:39;92.43;;;39.72;;
35644;SDS011;21764;52.042;6.830;2023-02-11T07:49:08;102.97;;;39.60;;
35644;SDS011;21764;52.042;6.830;2023-02-11T07:54:30;98.97;;;37.53;;
35644;SDS011;21764;52.042;6.830;2023-02-11T07:59:35;93.65;;;38.33;;
35644;SDS011;21764;52.042;6.830;2023-02-11T08:05:29;103.47;;;38.85;;
35644;SDS011;21764;52.042;6.830;2023-02-11T08:11:21;97.50;;;40.60;;
35644;SDS011;21764;52.042;6.830;2023-02-11T08:16:31;104.55;;;42.53;;
35644;SDS011;21764;52.042;6.830;2023-02-11T08:21:38;98.93;;;42.83;;
35644;SDS011;21764;52.042;6.830;2023-02-11T08:27:16;103.10;;;43.55;;
35644;SDS011;21764;52.042;6.830;2023-02-11T08:32:25;98.82;;;41.88;;
35644;SDS011;21764;52.042;6.830;2023-02-11T08:37:31;104.57;;;42.88;;
35644;SDS011;21764;52.042;6.830;2023-02-11T08:42:32;103.45;;;42.58;;
35644;SDS011;21764;52.042;6.830;2023-02-11T08:47:37;103.60;;;41.47;;
35644;SDS011;21764;52.042;6.830;2023-02-11T08:52:57;110.75;;;44.70;;
35644;SDS011;21764;52.042;6.830;2023-02-11T08:57:59;105.38;;;45.22;;
35644;SDS011;21764;52.042;6.830;2023-02-11T09:03:08;125.90;;;46.28;;
35644;SDS011;21764;52.042;6.830;2023-02-11T09:08:13;118.32;;;47.15;;
35644;SDS011;21764;52.042;6.830;2023-02-11T09:50:01;113.78;;;46.78;;
35644;SDS011;21764;52.042;6.830;2023-02-11T10:01:56;114.60;;;47.13;;
35644;SDS011;21764;52.042;6.830;2023-02-11T10:36:49;96.47;;;45.72;;
35644;SDS011;21764;52.042;6.830;2023-02-11T10:41:54;110.15;;;47.45;;
35644;SDS011;21764;52.042;6.830;2023-02-11T10:47:35;100.50;;;45.40;;
35644;SDS011;21764;52.042;6.830;2023-02-11T10:53:16;100.93;;;45.72;;
35644;SDS011;21764;52.042;6.830;2023-02-11T11:04:31;98.65;;;46.22;;
35644;SDS011;21764;52.042;6.830;2023-02-11T11:09:51;93.32;;;44.53;;
35644;SDS011;21764;52.042;6.830;2023-02-11T11:15:33;102.10;;;46.13;;
35644;SDS011;21764;52.042;6.830;2023-02-11T11:20:34;93.53;;;45.50;;
35644;SDS011;21764;52.042;6.830;2023-02-11T11:25:36;81.38;;;44.75;;
35644;SDS011;21764;52.042;6.830;2023-02-11T11:30:40;90.07;;;42.25;;
35644;SDS011;21764;52.042;6.830;2023-02-11T11:35:42;85.15;;;42.70;;
35644;SDS011;21764;52.042;6.830;2023-02-11T11:40:43;84.18;;;40.70;;
35644;SDS011;21764;52.042;6.830;2023-02-11T11:46:05;83.10;;;41.50;;
35644;SDS011;21764;52.042;6.830;2023-02-11T11:51:09;85.28;;;46.92;;
35644;SDS011;21764;52.042;6.830;2023-02-11T12:01:23;83.40;;;40.70;;
35644;SDS011;21764;52.042;6.830;2023-02-11T12:43:47;71.57;;;38.20;;
35644;SDS011;21764;52.042;6.830;2023-02-11T12:48:59;88.20;;;38.08;;
35644;SDS011;21764;52.042;6.830;2023-02-11T12:54:16;81.30;;;39.10;;
35644;SDS011;21764;52.042;6.830;2023-02-11T12:59:32;70.57;;;36.58;;
35644;SDS011;21764;52.042;6.830;2023-02-11T13:04:39;70.38;;;37.70;;
35644;SDS011;21764;52.042;6.830;2023-02-11T13:09:47;65.03;;;35.47;;
35644;SDS011;21764;52.042;6.830;2023-02-11T13:14:55;68.68;;;38.13;;
35644;SDS011;21764;52.042;6.830;2023-02-11T13:20:04;71.10;;;35.13;;
35644;SDS011;21764;52.042;6.830;2023-02-11T13:30:29;69.28;;;36.53;;
35644;SDS011;21764;52.042;6.830;2023-02-11T13:35:37;69.57;;;34.10;;
35644;SDS011;21764;52.042;6.830;2023-02-11T13:40:41;71.10;;;35.58;;
35644;SDS011;21764;52.042;6.830;2023-02-11T13:45:43;73.45;;;36.45;;
35644;SDS011;21764;52.042;6.830;2023-02-11T13:50:47;67.70;;;36.00;;
35644;SDS011;21764;52.042;6.830;2023-02-11T13:55:51;73.93;;;39.15;;
35644;SDS011;21764;52.042;6.830;2023-02-11T14:01:04;65.25;;;36.30;;
35644;SDS011;21764;52.042;6.830;2023-02-11T14:17:41;92.40;;;52.67;;
35644;SDS011;21764;52.042;6.830;2023-02-11T14:27:42;79.15;;;43.15;;
35644;SDS011;21764;52.042;6.830;2023-02-11T14:48:29;58.10;;;32.60;;
35644;SDS011;21764;52.042;6.830;2023-02-11T14:53:34;54.05;;;30.92;;
35644;SDS011;21764;52.042;6.830;2023-02-11T14:58:36;74.72;;;40.35;;
35644;SDS011;21764;52.042;6.830;2023-02-11T15:03:47;53.35;;;31.20;;
35644;SDS011;21764;52.042;6.830;2023-02-11T15:08:50;55.88;;;30.00;;
35644;SDS011;21764;52.042;6.830;2023-02-11T15:18:57;48.47;;;27.52;;
35644;SDS011;21764;52.042;6.830;2023-02-11T15:24:03;65.40;;;32.00;;
35644;SDS011;21764;52.042;6.830;2023-02-11T15:29:22;49.00;;;27.90;;
35644;SDS011;21764;52.042;6.830;2023-02-11T15:34:24;53.03;;;29.08;;
35644;SDS011;21764;52.042;6.830;2023-02-11T15:39:29;49.35;;;28.50;;
35644;SDS011;21764;52.042;6.830;2023-02-11T15:44:32;46.92;;;27.17;;
35644;SDS011;21764;52.042;6.830;2023-02-11T15:49:32;93.47;;;42.55;;
35644;SDS011;21764;52.042;6.830;2023-02-11T15:54:33;51.15;;;28.55;;
35644;SDS011;21764;52.042;6.830;2023-02-11T15:59:38;50.30;;;30.27;;
35644;SDS011;21764;52.042;6.830;2023-02-11T16:04:54;46.83;;;27.15;;
35644;SDS011;21764;52.042;6.830;2023-02-11T16:09:57;51.80;;;29.42;;
35644;SDS011;21764;52.042;6.830;2023-02-11T16:14:57;54.83;;;29.60;;
35644;SDS011;21764;52.042;6.830;2023-02-11T16:25:03;57.63;;;28.77;;
35644;SDS011;21764;52.042;6.830;2023-02-11T16:30:05;56.47;;;30.38;;
35644;SDS011;21764;52.042;6.830;2023-02-11T16:35:20;89.22;;;45.65;;
35644;SDS011;21764;52.042;6.830;2023-02-11T16:40:20;55.70;;;31.63;;
35644;SDS011;21764;52.042;6.830;2023-02-11T16:45:22;52.15;;;28.17;;
35644;SDS011;21764;52.042;6.830;2023-02-11T16:50:23;80.10;;;43.80;;
35644;SDS011;21764;52.042;6.830;2023-02-11T16:55:24;57.70;;;32.08;;
35644;SDS011;21764;52.042;6.830;2023-02-11T17:00:25;74.70;;;37.20;;
35644;SDS011;21764;52.042;6.830;2023-02-11T17:05:26;58.28;;;31.20;;
35644;SDS011;21764;52.042;6.830;2023-02-11T17:10:26;138.15;;;72.25;;
35644;SDS011;21764;52.042;6.830;2023-02-11T17:15:29;98.03;;;50.88;;
35644;SDS011;21764;52.042;6.830;2023-02-11T17:20:31;60.65;;;32.85;;
35644;SDS011;21764;52.042;6.830;2023-02-11T17:25:31;55.90;;;28.42;;
35644;SDS011;21764;52.042;6.830;2023-02-11T17:30:32;50.72;;;29.73;;
35644;SDS011;21764;52.042;6.830;2023-02-11T17:35:33;48.97;;;29.20;;
35644;SDS011;21764;52.042;6.830;2023-02-11T17:40:37;53.10;;;29.73;;
35644;SDS011;21764;52.042;6.830;2023-02-11T17:45:40;50.45;;;29.45;;
35644;SDS011;21764;52.042;6.830;2023-02-11T17:50:41;48.38;;;29.40;;
35644;SDS011;21764;52.042;6.830;2023-02-11T17:55:42;54.83;;;31.73;;
35644;SDS011;21764;52.042;6.830;2023-02-11T18:00:43;53.22;;;30.30;;
35644;SDS011;21764;52.042;6.830;2023-02-11T18:05:43;51.45;;;31.63;;
35644;SDS011;21764;52.042;6.830;2023-02-11T18:10:44;54.47;;;31.02;;
35644;SDS011;21764;52.042;6.830;2023-02-11T18:15:45;50.78;;;29.98;;
35644;SDS011;21764;52.042;6.830;2023-02-11T18:20:54;58.38;;;30.65;;
35644;SDS011;21764;52.042;6.830;2023-02-11T18:25:56;51.50;;;28.92;;
35644;SDS011;21764;52.042;6.830;2023-02-11T18:30:57;56.08;;;29.35;;
35644;SDS011;21764;52.042;6.830;2023-02-11T18:35:58;56.90;;;34.13;;
35644;SDS011;21764;52.042;6.830;2023-02-11T18:40:59;47.33;;;29.70;;
35644;SDS011;21764;52.042;6.830;2023-02-11T18:46:00;53.15;;;29.45;;
35644;SDS011;21764;52.042;6.830;2023-02-11T18:51:09;51.08;;;29.48;;
35644;SDS011;21764;52.042;6.830;2023-02-11T19:06:25;50.88;;;29.83;;
35644;SDS011;21764;52.042;6.830;2023-02-11T19:11:27;52.67;;;29.67;;
35644;SDS011;21764;52.042;6.830;2023-02-11T19:16:48;54.65;;;29.90;;
35644;SDS011;21764;52.042;6.830;2023-02-11T19:21:51;57.92;;;31.17;;
35644;SDS011;21764;52.042;6.830;2023-02-11T19:26:54;52.15;;;32.10;;
35644;SDS011;21764;52.042;6.830;2023-02-11T19:31:57;71.60;;;39.90;;
35644;SDS011;21764;52.042;6.830;2023-02-11T19:36:57;60.42;;;32.35;;
35644;SDS011;21764;52.042;6.830;2023-02-11T19:42:00;64.72;;;30.98;;
35644;SDS011;21764;52.042;6.830;2023-02-11T19:47:01;54.10;;;30.23;;
35644;SDS011;21764;52.042;6.830;2023-02-11T19:52:02;53.70;;;29.65;;
35644;SDS011;21764;52.042;6.830;2023-02-11T19:57:02;53.55;;;31.85;;
35644;SDS011;21764;52.042;6.830;2023-02-11T20:02:03;52.78;;;28.83;;
35644;SDS011;21764;52.042;6.830;2023-02-11T20:07:04;47.80;;;28.00;;
35644;SDS011;21764;52.042;6.830;2023-02-11T20:12:05;56.28;;;29.20;;
35644;SDS011;21764;52.042;6.830;2023-02-11T20:17:06;58.33;;;29.88;;
35644;SDS011;21764;52.042;6.830;2023-02-11T20:22:06;59.45;;;31.67;;
35644;SDS011;21764;52.042;6.830;2023-02-11T20:27:07;68.82;;;37.92;;
35644;SDS011;21764;52.042;6.830;2023-02-11T20:32:10;63.95;;;34.38;;
35644;SDS011;21764;52.042;6.830;2023-02-11T20:37:12;60.95;;;29.17;;
35644;SDS011;21764;52.042;6.830;2023-02-11T20:42:13;47.80;;;28.13;;
35644;SDS011;21764;52.042;6.830;2023-02-11T20:47:14;56.85;;;29.77;;
35644;SDS011;21764;52.042;6.830;2023-02-11T20:52:14;57.05;;;28.40;;
35644;SDS011;21764;52.042;6.830;2023-02-11T20:57:15;52.95;;;30.17;;
35644;SDS011;21764;52.042;6.830;2023-02-11T21:02:15;52.58;;;28.88;;
35644;SDS011;21764;52.042;6.830;2023-02-11T21:07:16;47.55;;;25.90;;
35644;SDS011;21764;52.042;6.830;2023-02-11T21:12:17;46.63;;;25.33;;
35644;SDS011;21764;52.042;6.830;2023-02-11T21:17:18;52.13;;;25.35;;
35644;SDS011;21764;52.042;6.830;2023-02-11T21:22:19;48.92;;;26.30;;
35644;SDS011;21764;52.042;6.830;2023-02-11T21:27:19;55.13;;;26.38;;
35644;SDS011;21764;52.042;6.830;2023-02-11T21:32:20;46.30;;;26.35;;
35644;SDS011;21764;52.042;6.830;2023-02-11T21:37:21;51.92;;;25.98;;
35644;SDS011;21764;52.042;6.830;2023-02-11T21:42:24;45.95;;;25.58;;
35644;SDS011;21764;52.042;6.830;2023-02-11T21:47:25;46.42;;;27.65;;
35644;SDS011;21764;52.042;6.830;2023-02-11T21:52:25;50.05;;;26.67;;
35644;SDS011;21764;52.042;6.830;2023-02-11T21:57:26;49.47;;;27.58;;
35644;SDS011;21764;52.042;6.830;2023-02-11T22:02:27;53.38;;;26.30;;
35644;SDS011;21764;52.042;6.830;2023-02-11T22:07:27;50.85;;;26.70;;
35644;SDS011;21764;52.042;6.830;2023-02-11T22:12:29;46.40;;;26.92;;
35644;SDS011;21764;52.042;6.830;2023-02-11T22:17:30;48.10;;;26.40;;
35644;SDS011;21764;52.042;6.830;2023-02-11T22:22:32;46.10;;;26.48;;
35644;SDS011;21764;52.042;6.830;2023-02-11T22:27:33;55.65;;;28.38;;
35644;SDS011;21764;52.042;6.830;2023-02-11T22:32:34;47.67;;;26.27;;
35644;SDS011;21764;52.042;6.830;2023-02-11T22:37:35;50.05;;;27.65;;
35644;SDS011;21764;52.042;6.830;2023-02-11T22:42:36;56.78;;;28.58;;
35644;SDS011;21764;52.042;6.830;2023-02-11T22:47:37;53.88;;;30.15;;
35644;SDS011;21764;52.042;6.830;2023-02-11T22:52:37;53.25;;;29.00;;
35644;SDS011;21764;52.042;6.830;2023-02-11T22:57:38;119.07;;;55.75;;
35644;SDS011;21764;52.042;6.830;2023-02-11T23:02:40;48.42;;;27.63;;
35644;SDS011;21764;52.042;6.830;2023-02-11T23:07:41;55.83;;;31.42;;
35644;SDS011;21764;52.042;6.830;2023-02-11T23:12:41;52.33;;;27.88;;
35644;SDS011;21764;52.042;6.830;2023-02-11T23:17:42;54.40;;;29.65;;
35644;SDS011;21764;52.042;6.830;2023-02-11T23:22:43;55.47;;;29.00;;
35644;SDS011;21764;52.042;6.830;2023-02-11T23:27:43;55.63;;;31.48;;
35644;SDS011;21764;52.042;6.830;2023-02-11T23:32:44;61.72;;;30.02;;
35644;SDS011;21764;52.042;6.830;2023-02-11T23:43:06;48.05;;;26.10;;
35644;SDS011;21764;52.042;6.830;2023-02-11T23:48:08;53.33;;;27.20;;
35644;SDS011;21764;52.042;6.830;2023-02-11T23:53:10;50.33;;;27.23;;
35644;SDS011;21764;52.042;6.830;2023-02-11T23:58:12;59.58;;;26.05;;
